Time;durP1;ratioP1;P1;durP2;ratioP2;P2;SDS_P1;SDS_P2;PMS_P1;PMS_P2;Temp;Humidity;BMP_temperature;BMP_pressure;BME280_temperature;BME280_humidity;BME280_pressure;Samples;Min_cycle;Max_cycle;Signal;HPM_P1;HPM_P2
2023/01/09 00:00:34;;;;;;;2.00;1.25;;;;;;;4.01;100.00;91367.44;2519848;23;20013;-85
2023/01/09 02:19:26;;;;;;;0.50;0.50;;;;;;;3.65;100.00;91354.38;4290050;27;20188;-86
2023/01/09 02:20:42;;;;;;;2.60;0.57;;;;;;;3.67;100.00;91356.59;2130111;27;20126;-82
2023/01/09 02:22:18;;;;;;;0.50;0.40;;;;;;;3.58;100.00;91359.09;2115278;28;20020;-85
2023/01/09 02:23:28;;;;;;;0.82;0.50;;;;;;;3.62;100.00;91365.03;2114399;28;20024;-88
2023/01/09 02:24:58;;;;;;;0.70;0.60;;;;;;;3.57;100.00;91368.19;2115140;27;20028;-82
2023/01/09 02:25:59;;;;;;;;;;;;;;;3.66;100.00;91366.44;2117717;28;20027;-82
2023/01/09 02:27:14;;;;;;;0.70;0.50;;;;;;;3.65;100.00;91364.22;2113123;28;19947;-82
2023/01/09 02:28:55;;;;;;;2.55;0.60;;;;;;;3.76;100.00;91365.44;2108740;28;20152;-85
2023/01/09 02:30:23;;;;;;;1.08;0.60;;;;;;;3.94;100.00;91358.94;2123778;27;20026;-84
2023/01/09 02:31:31;;;;;;;1.38;0.60;;;;;;;3.97;100.00;91358.13;2116857;28;20429;-86
2023/01/09 02:32:50;;;;;;;1.95;0.65;;;;;;;4.02;100.00;91358.34;2122664;27;20078;-85
2023/01/09 02:34:04;;;;;;;2.15;1.25;;;;;;;4.04;100.00;91369.28;2121692;28;20110;-87
2023/01/09 02:35:19;;;;;;;2.00;0.73;;;;;;;3.92;100.00;91361.28;2108255;28;20618;-86
2023/01/09 02:36:46;;;;;;;1.42;0.50;;;;;;;3.93;100.00;91354.84;2108683;28;20115;-87
2023/01/09 02:38:10;;;;;;;0.77;0.60;;;;;;;3.87;100.00;91357.25;2116664;28;20084;-84
2023/01/09 02:39:16;;;;;;;3.58;0.80;;;;;;;3.81;100.00;91360.78;2116038;28;20501;-83
2023/01/09 02:40:24;;;;;;;3.08;1.23;;;;;;;3.75;100.00;91363.22;2108061;28;20418;-85
2023/01/09 02:41:37;;;;;;;3.30;0.80;;;;;;;3.84;100.00;91360.72;2106424;28;20024;-87
2023/01/09 02:42:41;;;;;;;1.58;0.60;;;;;;;3.95;100.00;91365.72;2107923;28;20020;-85
2023/01/09 02:43:42;;;;;;;1.17;0.70;;;;;;;3.88;100.00;91358.72;2113629;28;20028;-88
2023/01/09 02:44:43;;;;;;;0.63;0.63;;;;;;;3.98;100.00;91357.69;2104771;28;20043;-83
2023/01/09 02:45:44;;;;;;;0.55;0.52;;;;;;;4.13;100.00;91355.44;2104860;28;20016;-85
2023/01/09 02:47:14;;;;;;;1.10;0.50;;;;;;;4.10;100.00;91366.13;2104410;28;20506;-85
2023/01/09 02:48:15;;;;;;;1.25;0.70;;;;;;;3.92;100.00;91353.34;2091073;28;20570;-85
2023/01/09 02:49:26;;;;;;;1.17;0.70;;;;;;;3.90;100.00;91353.00;2109392;28;20781;-83
2023/01/09 02:50:54;;;;;;;1.05;0.52;;;;;;;3.98;100.00;91365.63;2099000;28;20024;-84
2023/01/09 02:52:34;;;;;;;0.93;0.70;;;;;;;4.01;100.00;91391.25;2096510;28;20028;-86
2023/01/09 02:53:46;;;;;;;2.30;0.90;;;;;;;4.16;100.00;91388.97;2105225;28;20036;-85
2023/01/09 02:55:02;;;;;;;0.60;0.50;;;;;;;4.06;100.00;91397.19;2113344;28;20427;-86
2023/01/09 02:56:10;;;;;;;0.50;0.50;;;;;;;4.14;100.00;91398.50;2106636;28;20433;-83
2023/01/09 02:57:29;;;;;;;2.20;0.60;;;;;;;4.02;100.00;91408.59;2097642;28;20124;-86
2023/01/09 02:59:07;;;;;;;0.88;0.50;;;;;;;4.20;100.00;91397.56;2102161;28;20054;-87
2023/01/09 03:00:13;;;;;;;1.15;0.50;;;;;;;4.27;100.00;91407.97;2111476;28;20023;-81
2023/01/09 03:01:23;;;;;;;2.13;0.50;;;;;;;4.25;100.00;91406.88;2103553;28;20032;-83
2023/01/09 03:02:48;;;;;;;4.90;0.68;;;;;;;4.01;100.00;91401.81;2105357;28;20024;-83
2023/01/09 03:04:28;;;;;;;0.40;0.40;;;;;;;4.08;100.00;91400.13;2117747;28;20084;-86
2023/01/09 03:05:42;;;;;;;0.43;0.43;;;;;;;4.08;100.00;91392.94;2107014;28;20108;-86
2023/01/09 03:06:59;;;;;;;0.32;0.32;;;;;;;4.30;100.00;91401.06;2101947;28;20408;-86
2023/01/09 03:08:05;;;;;;;1.25;0.70;;;;;;;4.15;100.00;91413.19;2110776;28;20032;-87
2023/01/09 03:09:13;;;;;;;0.40;0.40;;;;;;;4.42;100.00;91410.22;2106232;28;20035;-85
2023/01/09 03:10:25;;;;;;;2.45;0.60;;;;;;;4.38;100.00;91426.19;2107444;28;20028;-84
2023/01/09 03:11:32;;;;;;;1.65;0.65;;;;;;;4.23;100.00;91406.56;2098659;28;20050;-83
2023/01/09 03:12:35;;;;;;;1.90;0.60;;;;;;;4.06;100.00;91407.75;2097829;28;20020;-89
2023/01/09 03:13:48;;;;;;;0.60;0.60;;;;;;;3.90;100.00;91411.16;2095703;28;20517;-85
2023/01/09 03:14:58;;;;;;;2.15;0.47;;;;;;;3.92;100.00;91414.88;2091897;28;20032;-85
2023/01/09 03:16:05;;;;;;;0.82;0.50;;;;;;;3.85;100.00;91409.75;2092041;28;20025;-84
2023/01/09 03:17:11;;;;;;;1.15;0.50;;;;;;;4.07;100.00;91414.53;2105497;28;20060;-86
2023/01/09 03:18:15;;;;;;;0.63;0.35;;;;;;;4.08;100.00;91416.00;2097076;28;20039;-85
2023/01/09 03:19:20;;;;;;;4.25;0.60;;;;;;;4.11;100.00;91410.63;2088588;28;20053;-83
2023/01/09 03:20:26;;;;;;;0.55;0.50;;;;;;;3.97;100.00;91409.09;2097612;28;20791;-84
2023/01/09 03:21:27;;;;;;;0.40;0.40;;;;;;;3.88;100.00;91403.66;2118911;27;20055;-83
2023/01/09 03:22:28;;;;;;;2.40;0.60;;;;;;;3.79;100.00;91406.88;2112842;28;20028;-83
2023/01/09 03:23:45;;;;;;;0.50;0.50;;;;;;;3.81;100.00;91417.03;2096282;28;20765;-85
2023/01/09 03:24:46;;;;;;;0.50;0.50;;;;;;;3.73;100.00;91418.34;2106685;28;20056;-85
2023/01/09 03:25:47;;;;;;;1.10;0.40;;;;;;;3.74;100.00;91425.16;2096010;28;20024;-84
2023/01/09 03:26:48;;;;;;;0.45;0.45;;;;;;;4.02;100.00;91424.44;2087720;28;20048;-84
2023/01/09 03:27:56;;;;;;;1.13;0.50;;;;;;;3.92;100.00;91433.38;2112685;28;20471;-83
2023/01/09 03:28:58;;;;;;;0.50;0.40;;;;;;;4.17;100.00;91446.00;2101765;28;20032;-86
2023/01/09 03:29:59;;;;;;;1.52;0.40;;;;;;;4.17;100.00;91427.50;2092024;28;20460;-84
2023/01/09 03:31:00;;;;;;;0.40;0.40;;;;;;;4.06;100.00;91455.34;2098523;28;20028;-85
2023/01/09 03:32:02;;;;;;;0.82;0.57;;;;;;;4.00;100.00;91453.22;2082220;28;20025;-83
2023/01/09 03:33:03;;;;;;;0.40;0.40;;;;;;;4.04;100.00;91459.16;2097019;28;20043;-84
2023/01/09 03:34:04;;;;;;;2.05;0.50;;;;;;;4.23;100.00;91464.75;2098661;28;20070;-85
2023/01/09 03:35:05;;;;;;;0.95;0.43;;;;;;;4.07;100.00;91454.91;2098982;28;20407;-85
2023/01/09 03:36:07;;;;;;;0.70;0.47;;;;;;;3.91;100.00;91455.69;2098808;28;20054;-86
2023/01/09 03:37:08;;;;;;;1.73;0.40;;;;;;;3.97;100.00;91464.59;2097134;28;20021;-86
2023/01/09 03:38:09;;;;;;;0.47;0.40;;;;;;;4.07;100.00;91462.09;2090255;28;20021;-85
2023/01/09 03:39:10;;;;;;;1.98;0.57;;;;;;;4.09;100.00;91471.13;2090550;28;20059;-85
2023/01/09 03:40:11;;;;;;;0.30;0.30;;;;;;;4.03;100.00;91475.41;2090097;28;20442;-88
2023/01/09 03:41:13;;;;;;;0.60;0.40;;;;;;;4.17;100.00;91483.03;2090453;28;20526;-84
2023/01/09 03:42:14;;;;;;;1.10;0.40;;;;;;;4.12;100.00;91483.50;2082095;28;20029;-83
2023/01/09 03:43:15;;;;;;;0.40;0.40;;;;;;;4.13;100.00;91500.13;2082166;28;20077;-88
2023/01/09 03:44:16;;;;;;;2.08;0.40;;;;;;;3.87;100.00;91504.50;2090091;28;20431;-83
2023/01/09 03:45:17;;;;;;;0.30;0.30;;;;;;;3.76;100.00;91517.94;2082045;28;20032;-83
2023/01/09 03:46:18;;;;;;;3.88;0.55;;;;;;;3.72;100.00;91525.19;2082192;28;20044;-87
2023/01/09 03:47:19;;;;;;;0.30;0.30;;;;;;;3.69;100.00;91523.41;2082089;28;20466;-86
2023/01/09 03:48:38;;;;;;;1.00;0.40;;;;;;;3.65;100.00;91522.75;2090130;28;20029;-86
2023/01/09 03:49:39;;;;;;;0.30;0.30;;;;;;;3.83;100.00;91514.41;2092762;28;20036;-83
2023/01/09 03:50:44;;;;;;;0.35;0.35;;;;;;;3.87;100.00;91525.66;2090026;28;20029;-87
2023/01/09 03:51:45;;;;;;;0.68;0.40;;;;;;;3.74;100.00;91526.28;2098429;28;20038;-84
2023/01/09 03:52:46;;;;;;;0.43;0.40;;;;;;;3.73;100.00;91524.03;2090363;28;20028;-83
2023/01/09 03:53:47;;;;;;;1.83;0.40;;;;;;;3.81;100.00;91524.63;2090142;28;20462;-88
2023/01/09 03:54:48;;;;;;;0.20;0.20;;;;;;;3.81;100.00;91528.03;2090279;28;20512;-85
2023/01/09 03:55:51;;;;;;;0.28;0.28;;;;;;;3.72;100.00;91530.50;2098275;28;20337;-83
2023/01/09 03:56:52;;;;;;;0.32;0.32;;;;;;;3.53;100.00;91526.75;2098696;28;20032;-85
2023/01/09 03:57:53;;;;;;;0.57;0.30;;;;;;;3.71;100.00;91523.72;2090357;28;20024;-88
2023/01/09 03:58:54;;;;;;;0.30;0.30;;;;;;;3.93;100.00;91551.16;2090032;28;20700;-84
2023/01/09 03:59:55;;;;;;;1.67;0.40;;;;;;;3.53;100.00;91537.31;2098403;28;20016;-83
2023/01/09 04:00:59;;;;;;;0.20;0.20;;;;;;;3.58;100.00;91538.72;2106511;28;20031;-84
2023/01/09 04:02:00;;;;;;;0.90;0.30;;;;;;;3.84;100.00;91547.59;2107024;28;20384;-83
2023/01/09 04:03:02;;;;;;;0.20;0.20;;;;;;;3.71;100.00;91550.88;2098567;28;20031;-85
2023/01/09 04:04:03;;;;;;;0.32;0.32;;;;;;;3.53;100.00;91548.63;2098246;28;20416;-87
2023/01/09 04:05:04;;;;;;;0.40;0.35;;;;;;;3.54;100.00;91563.31;2098360;28;20032;-85
2023/01/09 04:06:06;;;;;;;0.43;0.30;;;;;;;3.40;100.00;91565.50;2098598;28;20031;-85
2023/01/09 04:07:07;;;;;;;0.65;0.30;;;;;;;3.35;100.00;91566.72;2090299;28;20048;-84
2023/01/09 04:08:08;;;;;;;0.30;0.30;;;;;;;3.49;100.00;91576.25;2089995;28;20053;-85
2023/01/09 04:09:09;;;;;;;0.30;0.30;;;;;;;3.43;100.00;91577.91;2089964;28;20921;-85
2023/01/09 04:10:11;;;;;;;0.22;0.22;;;;;;;3.42;100.00;91582.41;2098480;28;20036;-82
2023/01/09 04:11:12;;;;;;;0.65;0.30;;;;;;;3.47;100.00;91579.31;2098220;28;20059;-84
2023/01/09 04:12:13;;;;;;;0.63;0.40;;;;;;;3.37;100.00;91588.19;2089954;28;20021;-85
2023/01/09 04:13:14;;;;;;;4.95;0.90;;;;;;;3.40;100.00;91594.56;2090318;28;20051;-84
2023/01/09 04:14:15;;;;;;;0.30;0.30;;;;;;;3.35;100.00;91595.03;2089559;28;20029;-84
2023/01/09 04:15:16;;;;;;;2.38;0.75;;;;;;;3.36;100.00;91594.63;2098179;28;20593;-88
2023/01/09 04:16:17;;;;;;;0.32;0.32;;;;;;;3.33;100.00;91600.72;2106355;28;20027;-83
2023/01/09 04:17:18;;;;;;;0.32;0.30;;;;;;;3.21;100.00;91603.97;2106455;28;20056;-84
2023/01/09 04:18:19;;;;;;;0.40;0.40;;;;;;;3.17;100.00;91606.69;2106803;28;20020;-82
2023/01/09 04:19:20;;;;;;;1.00;0.22;;;;;;;3.45;100.00;91618.59;2097783;28;20056;-81
2023/01/09 04:20:21;;;;;;;0.40;0.40;;;;;;;3.32;100.00;91617.72;2090283;28;20036;-82
2023/01/09 04:21:22;;;;;;;0.55;0.40;;;;;;;3.25;100.00;91615.97;2098125;28;20024;-84
2023/01/09 04:22:49;;;;;;;0.45;0.30;;;;;;;3.27;100.00;91616.28;2098087;28;20110;-81
2023/01/09 04:23:50;;;;;;;1.00;0.28;;;;;;;3.30;100.00;91616.66;2101529;28;20098;-85
2023/01/09 04:24:51;;;;;;;0.30;0.30;;;;;;;3.14;100.00;91614.66;2098494;28;20020;-85
2023/01/09 04:25:53;;;;;;;1.02;0.30;;;;;;;3.07;100.00;91612.88;2098153;28;20024;-87
2023/01/09 04:26:55;;;;;;;0.22;0.22;;;;;;;3.31;100.00;91615.50;2098106;28;20107;-86
2023/01/09 04:27:56;;;;;;;0.50;0.47;;;;;;;3.35;100.00;91610.88;2097858;28;20131;-85
2023/01/09 04:28:57;;;;;;;0.55;0.40;;;;;;;3.03;100.00;91607.69;2097929;28;20027;-86
2023/01/09 04:29:58;;;;;;;0.32;0.32;;;;;;;2.99;100.00;91614.19;2089915;28;20029;-86
2023/01/09 04:31:01;;;;;;;0.40;0.40;;;;;;;2.93;100.00;91615.78;2096090;28;20059;-84
2023/01/09 04:32:02;;;;;;;0.40;0.40;;;;;;;2.96;100.00;91618.38;2106089;28;20158;-83
2023/01/09 04:33:03;;;;;;;0.30;0.30;;;;;;;3.00;100.00;91629.59;2106700;28;20020;-83
2023/01/09 04:34:04;;;;;;;1.40;0.22;;;;;;;2.95;100.00;91627.44;2106084;28;20097;-84
2023/01/09 04:35:06;;;;;;;0.35;0.30;;;;;;;3.28;100.00;91652.09;2106480;28;20109;-86
2023/01/09 04:36:07;;;;;;;0.63;0.30;;;;;;;3.11;100.00;91639.22;2114934;28;20043;-86
2023/01/09 04:37:08;;;;;;;1.52;0.30;;;;;;;3.21;100.00;91654.16;2097825;28;20032;-84
2023/01/09 04:38:10;;;;;;;0.28;0.22;;;;;;;3.15;100.00;91658.38;2098198;28;20024;-84
2023/01/09 04:39:11;;;;;;;0.22;0.22;;;;;;;2.98;100.00;91665.47;2098052;28;20032;-83
2023/01/09 04:40:12;;;;;;;1.02;0.20;;;;;;;2.79;100.00;91661.63;2088812;28;20020;-85
2023/01/09 04:41:47;;;;;;;0.47;0.47;;;;;;;2.90;100.00;91666.75;2088855;28;20025;-84
2023/01/09 04:42:35;;;;;;;0.32;0.30;;;;;;;2.91;100.00;91671.63;2100869;28;20360;-85
2023/01/09 04:43:41;;;;;;;1.42;0.40;;;;;;;3.08;100.00;91683.03;2089859;28;20124;-86
2023/01/09 04:44:42;;;;;;;0.60;0.50;;;;;;;2.94;100.00;91677.97;2091280;28;20036;-84
2023/01/09 04:45:44;;;;;;;0.30;0.30;;;;;;;2.78;100.00;91673.34;2089716;28;20502;-84
2023/01/09 04:46:45;;;;;;;1.77;0.60;;;;;;;3.03;100.00;91681.59;2089853;28;20032;-87
2023/01/09 04:47:47;;;;;;;0.30;0.30;;;;;;;2.93;100.00;91682.50;2089658;28;20025;-85
2023/01/09 04:48:48;;;;;;;3.35;0.40;;;;;;;2.88;100.00;91679.59;2089583;28;20021;-84
2023/01/09 04:49:50;;;;;;;0.88;0.60;;;;;;;2.79;100.00;91680.09;2081558;28;20466;-86
2023/01/09 04:50:51;;;;;;;1.85;0.40;;;;;;;2.81;100.00;91685.75;2088099;28;20032;-85
2023/01/09 04:51:53;;;;;;;0.30;0.30;;;;;;;2.92;100.00;91696.84;2098147;28;20020;-86
2023/01/09 04:52:55;;;;;;;3.55;0.40;;;;;;;2.68;100.00;91693.47;2105722;28;20095;-85
2023/01/09 04:53:56;;;;;;;0.30;0.30;;;;;;;2.41;100.00;91685.56;2105910;28;20028;-87
2023/01/09 04:54:57;;;;;;;1.10;0.30;;;;;;;2.36;100.00;91701.84;2097805;28;20382;-87
2023/01/09 04:55:58;;;;;;;2.50;0.40;;;;;;;2.29;100.00;91694.03;2095274;28;20449;-84
2023/01/09 04:56:59;;;;;;;0.95;0.30;;;;;;;2.49;100.00;91699.41;2097883;28;20024;-86
2023/01/09 04:58:00;;;;;;;0.65;0.25;;;;;;;2.48;100.00;91711.09;2089683;28;20060;-85
2023/01/09 04:59:03;;;;;;;1.38;0.40;;;;;;;2.37;100.00;91716.53;2097625;28;20021;-86
2023/01/09 05:00:08;;;;;;;0.68;0.40;;;;;;;2.60;100.00;91718.47;2097604;28;20383;-85
2023/01/09 05:01:09;;;;;;;1.88;0.40;;;;;;;2.55;100.00;91712.88;2082711;28;20144;-83
2023/01/09 05:02:10;;;;;;;2.17;0.57;;;;;;;2.49;100.00;91705.41;2088510;28;20799;-85
2023/01/09 05:03:11;;;;;;;1.52;0.63;;;;;;;2.27;100.00;91707.59;2089712;28;20087;-86
2023/01/09 05:04:13;;;;;;;1.35;0.32;;;;;;;2.29;100.00;91728.31;2097805;28;20032;-85
2023/01/09 05:05:14;;;;;;;3.15;0.40;;;;;;;2.42;100.00;91724.00;2105946;28;20080;-84
2023/01/09 05:06:15;;;;;;;1.98;0.50;;;;;;;2.36;100.00;91725.56;2097779;28;20025;-86
2023/01/09 05:07:16;;;;;;;0.20;0.20;;;;;;;2.39;100.00;91724.03;2089600;28;20830;-87
2023/01/09 05:08:17;;;;;;;0.73;0.30;;;;;;;2.31;100.00;91731.28;2097910;28;20047;-85
2023/01/09 05:09:18;;;;;;;2.05;0.40;;;;;;;2.26;100.00;91729.09;2097756;28;20031;-85
2023/01/09 05:10:19;;;;;;;0.73;0.50;;;;;;;2.28;100.00;91724.16;2089346;28;20737;-86
2023/01/09 05:11:21;;;;;;;1.35;0.30;;;;;;;2.23;100.00;91717.44;2097867;28;20594;-84
2023/01/09 05:12:22;;;;;;;0.93;0.30;;;;;;;2.11;100.00;91725.91;2089829;28;20021;-84
2023/01/09 05:13:23;;;;;;;1.00;0.30;;;;;;;2.11;100.00;91728.56;2097900;28;20026;-86
2023/01/09 05:14:24;;;;;;;0.93;0.30;;;;;;;2.18;100.00;91727.69;2097968;28;20032;-83
2023/01/09 05:15:27;;;;;;;0.40;0.40;;;;;;;2.24;100.00;91723.50;2089922;28;20075;-83
2023/01/09 05:16:30;;;;;;;1.40;0.30;;;;;;;2.43;100.00;91727.38;2098190;28;20028;-88
2023/01/09 05:17:31;;;;;;;0.93;0.80;;;;;;;2.16;100.00;91730.00;2098099;28;20143;-84
2023/01/09 05:18:32;;;;;;;1.50;1.10;;;;;;;2.13;100.00;91736.06;2097839;28;20024;-83
2023/01/09 05:19:33;;;;;;;0.70;0.60;;;;;;;1.96;100.00;91740.38;2106054;28;20024;-83
2023/01/09 05:20:36;;;;;;;0.50;0.50;;;;;;;1.95;100.00;91744.91;2098029;28;20067;-83
2023/01/09 05:21:37;;;;;;;0.75;0.40;;;;;;;2.22;100.00;91742.31;2098040;28;20073;-86
2023/01/09 05:22:38;;;;;;;2.63;0.32;;;;;;;2.14;100.00;91740.16;2089645;28;20029;-84
2023/01/09 05:23:39;;;;;;;4.57;3.00;;;;;;;2.05;100.00;91753.09;2089451;28;20021;-86
2023/01/09 05:24:40;;;;;;;2.85;1.73;;;;;;;1.96;100.00;91754.31;2106311;28;20051;-87
2023/01/09 05:25:41;;;;;;;1.35;0.57;;;;;;;1.85;100.00;91735.25;2106195;28;20647;-83
2023/01/09 05:26:42;;;;;;;1.30;0.60;;;;;;;1.96;100.00;91741.13;2114307;28;20381;-86
2023/01/09 05:27:45;;;;;;;4.13;0.70;;;;;;;2.06;100.00;91736.13;2089686;28;20469;-84
2023/01/09 05:28:46;;;;;;;0.60;0.60;;;;;;;2.19;100.00;91743.09;2106067;28;20601;-82
2023/01/09 05:29:47;;;;;;;5.00;0.80;;;;;;;2.01;100.00;91743.31;2106027;28;20047;-86
2023/01/09 05:30:48;;;;;;;0.68;0.40;;;;;;;2.01;100.00;91747.84;2097597;28;20032;-85
2023/01/09 05:31:51;;;;;;;1.10;0.80;;;;;;;2.02;100.00;91744.09;2097838;28;20025;-85
2023/01/09 05:32:52;;;;;;;7.97;1.98;;;;;;;1.93;100.00;91743.81;2098497;28;20025;-86
2023/01/09 05:33:53;;;;;;;6.07;2.67;;;;;;;1.92;100.00;91752.84;2097821;28;20020;-84
2023/01/09 05:34:54;;;;;;;10.98;4.60;;;;;;;1.82;100.00;91753.75;2089664;28;20049;-83
2023/01/09 05:36:02;;;;;;;5.20;0.82;;;;;;;2.07;100.00;91745.53;2098613;28;20023;-86
2023/01/09 05:37:03;;;;;;;1.27;0.43;;;;;;;2.23;100.00;91749.06;2110238;28;20476;-82
2023/01/09 05:38:04;;;;;;;2.45;0.80;;;;;;;2.05;100.00;91753.09;2104164;28;20052;-83
2023/01/09 05:39:05;;;;;;;7.78;2.15;;;;;;;2.13;100.00;91755.25;2104065;28;20493;-82
2023/01/09 05:40:06;;;;;;;2.08;0.55;;;;;;;2.14;100.00;91766.53;2106813;28;20047;-84
2023/01/09 05:41:08;;;;;;;1.30;0.40;;;;;;;2.14;100.00;91754.09;2098171;28;20032;-84
2023/01/09 05:42:11;;;;;;;4.32;1.75;;;;;;;1.92;100.00;91747.59;2104068;28;20025;-84
2023/01/09 05:43:12;;;;;;;4.00;1.55;;;;;;;1.96;100.00;91761.47;2099400;28;20066;-83
2023/01/09 05:44:14;;;;;;;4.20;0.77;;;;;;;1.84;100.00;91762.72;2108051;28;20031;-85
2023/01/09 05:45:16;;;;;;;1.95;0.60;;;;;;;1.86;100.00;91760.47;2115901;28;20031;-85
2023/01/09 05:46:19;;;;;;;1.20;0.55;;;;;;;1.88;100.00;91765.31;2115447;28;20105;-83
2023/01/09 05:47:20;;;;;;;6.20;2.30;;;;;;;1.71;100.00;91767.00;2114444;28;20416;-84
2023/01/09 05:48:21;;;;;;;1.17;0.88;;;;;;;1.91;100.00;91765.28;2096555;28;20123;-86
2023/01/09 05:49:22;;;;;;;1.95;0.50;;;;;;;1.91;100.00;91777.72;2097435;28;20020;-85
2023/01/09 05:50:23;;;;;;;4.28;0.65;;;;;;;2.06;100.00;91773.03;2097287;28;20035;-84
2023/01/09 05:51:24;;;;;;;0.50;0.50;;;;;;;2.11;100.00;91773.34;2095514;28;20016;-84
2023/01/09 05:52:25;;;;;;;2.15;1.10;;;;;;;2.03;100.00;91782.47;2094634;28;20028;-85
2023/01/09 05:53:26;;;;;;;5.18;0.80;;;;;;;1.86;100.00;91778.91;2088575;28;20024;-86
2023/01/09 05:54:27;;;;;;;2.58;0.65;;;;;;;1.74;100.00;91782.78;2089012;28;20025;-86
2023/01/09 05:55:28;;;;;;;0.98;0.50;;;;;;;2.04;100.00;91777.94;2088281;28;20021;-84
2023/01/09 05:56:36;;;;;;;1.73;0.60;;;;;;;1.88;100.00;91778.50;2096999;28;20016;-84
2023/01/09 05:57:37;;;;;;;3.22;0.63;;;;;;;1.87;100.00;91784.91;2103218;28;20048;-84
2023/01/09 05:58:38;;;;;;;3.47;1.70;;;;;;;1.76;100.00;91785.03;2105460;28;20137;-85
2023/01/09 05:59:39;;;;;;;3.92;0.57;;;;;;;2.20;100.00;91781.53;2095873;28;20085;-85
2023/01/09 06:00:41;;;;;;;1.70;0.70;;;;;;;2.16;100.00;91795.88;2097198;28;20445;-85
2023/01/09 06:01:42;;;;;;;3.80;2.15;;;;;;;1.99;100.00;91792.31;2095959;28;20479;-82
2023/01/09 06:02:43;;;;;;;2.55;0.90;;;;;;;1.97;100.00;91786.66;2097523;28;20024;-84
2023/01/09 06:03:44;;;;;;;2.72;0.75;;;;;;;2.19;100.00;91789.81;2105711;28;20024;-85
2023/01/09 06:04:45;;;;;;;2.50;0.85;;;;;;;2.04;100.00;91793.75;2096618;28;20032;-87
2023/01/09 06:05:46;;;;;;;9.25;1.65;;;;;;;2.03;100.00;91792.28;2093832;28;20036;-83
2023/01/09 06:06:47;;;;;;;2.60;0.63;;;;;;;2.17;100.00;91784.94;2098748;28;20021;-83
2023/01/09 06:07:48;;;;;;;4.93;0.80;;;;;;;2.08;100.00;91800.50;2099729;28;20020;-83
2023/01/09 06:08:49;;;;;;;2.15;1.00;;;;;;;1.90;100.00;91805.97;2099802;28;20020;-85
2023/01/09 06:09:50;;;;;;;3.45;0.90;;;;;;;1.80;100.00;91796.28;2109763;28;20028;-83
2023/01/09 06:10:51;;;;;;;4.28;1.20;;;;;;;1.79;100.00;91796.66;2107591;28;20044;-85
2023/01/09 06:11:53;;;;;;;3.28;1.00;;;;;;;1.93;100.00;91789.38;2097776;28;20024;-86
2023/01/09 06:12:54;;;;;;;5.07;0.93;;;;;;;1.94;100.00;91793.50;2089825;28;20708;-85
2023/01/09 06:13:55;;;;;;;4.55;0.88;;;;;;;2.15;100.00;91797.78;2089001;28;20059;-84
2023/01/09 06:14:56;;;;;;;1.42;0.63;;;;;;;2.27;100.00;91796.50;2089367;28;20432;-84
2023/01/09 06:15:57;;;;;;;5.18;1.02;;;;;;;1.96;100.00;91793.09;2097349;28;20032;-84
2023/01/09 06:17:05;;;;;;;7.95;2.17;;;;;;;1.81;100.00;91791.75;2097908;28;20036;-84
2023/01/09 06:18:06;;;;;;;2.72;1.58;;;;;;;1.92;100.00;91787.13;2090659;28;20121;-86
2023/01/09 06:19:08;;;;;;;3.30;1.05;;;;;;;1.70;100.00;91778.69;2096468;28;20048;-84
2023/01/09 06:20:09;;;;;;;3.45;1.15;;;;;;;1.57;100.00;91770.53;2096753;28;20483;-86
2023/01/09 06:21:10;;;;;;;2.40;0.73;;;;;;;1.72;100.00;91771.16;2088818;28;20078;-84
2023/01/09 06:22:11;;;;;;;2.78;0.70;;;;;;;1.54;100.00;91763.44;2095480;28;20020;-87
2023/01/09 06:23:12;;;;;;;3.00;1.00;;;;;;;1.79;100.00;91772.94;2080532;28;20485;-82
2023/01/09 06:24:13;;;;;;;3.38;0.73;;;;;;;1.73;100.00;91754.94;2089023;28;20044;-83
2023/01/09 06:25:15;;;;;;;3.40;1.23;;;;;;;2.00;100.00;91755.03;2100250;28;20028;-84
2023/01/09 06:26:16;;;;;;;12.80;5.03;;;;;;;1.75;100.00;91757.19;2088894;28;20021;-84
2023/01/09 06:27:17;;;;;;;10.95;4.68;;;;;;;1.79;100.00;91752.63;2096864;28;20532;-84
2023/01/09 06:28:18;;;;;;;7.65;1.95;;;;;;;1.92;100.00;91761.50;2096900;28;20024;-82
2023/01/09 06:29:19;;;;;;;3.03;0.95;;;;;;;1.80;100.00;91764.69;2097207;28;20025;-82
2023/01/09 06:30:20;;;;;;;16.75;7.32;;;;;;;1.57;100.00;91751.38;2096824;28;20118;-83
2023/01/09 06:31:22;;;;;;;13.40;4.28;;;;;;;1.55;100.00;91756.28;2096811;28;20170;-83
2023/01/09 06:32:23;;;;;;;21.92;7.28;;;;;;;1.45;100.00;91766.53;2096925;28;20074;-85
2023/01/09 06:33:24;;;;;;;13.40;5.78;;;;;;;1.46;100.00;91754.84;2089006;28;20025;-82
2023/01/09 06:34:25;;;;;;;16.80;7.47;;;;;;;1.43;100.00;91757.53;2096249;28;20027;-84
2023/01/09 06:35:26;;;;;;;7.20;2.45;;;;;;;1.81;100.00;91768.06;2096540;28;20044;-85
2023/01/09 06:36:27;;;;;;;5.70;0.90;;;;;;;1.82;100.00;91766.91;2088059;28;20080;-83
2023/01/09 06:37:28;;;;;;;9.32;1.70;;;;;;;1.61;100.00;91762.59;2096207;28;20453;-85
2023/01/09 06:38:29;;;;;;;7.32;1.55;;;;;;;1.76;100.00;91756.06;2104730;28;20107;-83
2023/01/09 06:39:30;;;;;;;5.28;1.75;;;;;;;1.57;100.00;91754.75;2088271;28;20039;-86
2023/01/09 06:40:31;;;;;;;8.30;3.85;;;;;;;1.47;100.00;91756.34;2088032;28;20142;-84
2023/01/09 06:41:32;;;;;;;16.17;5.95;;;;;;;1.37;100.00;91761.72;2087906;28;20059;-82
2023/01/09 06:42:34;;;;;;;8.80;3.08;;;;;;;1.37;100.00;91759.09;2096791;28;20107;-86
2023/01/09 06:43:35;;;;;;;14.63;4.93;;;;;;;1.28;100.00;91751.66;2096290;28;20094;-87
2023/01/09 06:44:45;;;;;;;5.47;3.45;;;;;;;1.25;100.00;91753.16;2088012;28;20032;-85
2023/01/09 06:45:46;;;;;;;;;;;;;;;1.35;100.00;91759.47;2097275;28;20040;-86
2023/01/09 06:46:47;;;;;;;2.00;0.70;;;;;;;1.46;100.00;91754.84;2096553;28;19913;-86
2023/01/09 06:47:48;;;;;;;5.32;2.05;;;;;;;1.29;100.00;91747.88;2114485;28;20011;-87
2023/01/09 06:48:49;;;;;;;8.55;1.75;;;;;;;1.43;100.00;91744.34;2088272;28;20475;-82
2023/01/09 06:49:51;;;;;;;5.45;1.15;;;;;;;1.28;100.00;91743.00;2079563;28;20148;-83
2023/01/09 06:50:53;;;;;;;14.13;5.63;;;;;;;1.21;100.00;91746.44;2086844;28;20033;-86
2023/01/09 06:51:54;;;;;;;5.45;2.15;;;;;;;1.57;100.00;91757.38;2097379;28;20491;-84
2023/01/09 06:53:10;;;;;;;8.10;1.55;;;;;;;1.68;100.00;91758.03;2099251;28;20040;-83
2023/01/09 06:54:24;;;;;;;5.38;1.45;;;;;;;1.70;100.00;91752.34;2098611;28;20027;-83
2023/01/09 06:55:47;;;;;;;13.85;2.35;;;;;;;1.55;100.00;91764.94;2093872;28;20036;-85
2023/01/09 06:56:48;;;;;;;7.40;2.20;;;;;;;1.77;100.00;91768.09;2099699;28;20032;-83
2023/01/09 06:57:49;;;;;;;13.57;2.60;;;;;;;1.69;100.00;91770.03;2096406;28;20496;-87
2023/01/09 06:58:50;;;;;;;9.75;1.27;;;;;;;1.72;100.00;91760.63;2095980;28;20024;-83
2023/01/09 06:59:51;;;;;;;7.13;1.20;;;;;;;1.87;100.00;91755.94;2096481;28;20021;-84
2023/01/09 07:00:54;;;;;;;11.18;3.60;;;;;;;1.65;100.00;91752.78;2096438;28;20021;-86
2023/01/09 07:01:55;;;;;;;6.32;2.05;;;;;;;1.68;100.00;91752.75;2088034;28;20024;-85
2023/01/09 07:02:56;;;;;;;6.05;1.40;;;;;;;1.72;100.00;91744.81;2088315;28;20055;-84
2023/01/09 07:03:58;;;;;;;4.63;1.42;;;;;;;1.62;100.00;91756.19;2088581;28;20017;-84
2023/01/09 07:05:10;;;;;;;13.95;2.38;;;;;;;1.69;100.00;91751.59;2098527;28;20035;-84
2023/01/09 07:06:11;;;;;;;11.95;1.60;;;;;;;1.55;100.00;91745.75;2107839;28;20024;-83
2023/01/09 07:07:14;;;;;;;7.60;1.05;;;;;;;1.55;100.00;91735.97;2114628;28;20222;-84
2023/01/09 07:08:15;;;;;;;9.02;2.40;;;;;;;1.52;100.00;91739.38;2109686;28;20024;-84
2023/01/09 07:09:17;;;;;;;10.77;2.55;;;;;;;1.70;100.00;91733.91;2089981;28;20025;-85
2023/01/09 07:10:18;;;;;;;10.60;1.45;;;;;;;1.84;100.00;91733.75;2095777;28;20181;-86
2023/01/09 07:11:19;;;;;;;7.57;1.17;;;;;;;1.78;100.00;91740.59;2089818;28;20025;-84
2023/01/09 07:12:20;;;;;;;6.47;1.67;;;;;;;1.96;100.00;91741.13;2081923;28;20056;-84
2023/01/09 07:13:21;;;;;;;8.70;1.02;;;;;;;1.78;100.00;91748.50;2097665;28;20028;-86
2023/01/09 07:14:22;;;;;;;4.70;1.65;;;;;;;1.57;100.00;91738.19;2098115;28;20024;-85
2023/01/09 07:15:23;;;;;;;6.15;1.90;;;;;;;1.60;100.00;91753.22;2106716;28;20166;-87
2023/01/09 07:16:25;;;;;;;3.42;0.80;;;;;;;1.56;100.00;91749.88;2106623;28;20104;-86
2023/01/09 07:17:26;;;;;;;14.27;2.40;;;;;;;1.48;100.00;91751.81;2090290;28;20025;-84
2023/01/09 07:18:27;;;;;;;6.15;0.80;;;;;;;1.43;100.00;91745.09;2097954;28;20597;-85
2023/01/09 07:19:28;;;;;;;8.23;2.20;;;;;;;1.61;100.00;91763.34;2089764;28;20122;-85
2023/01/09 07:20:29;;;;;;;4.90;1.10;;;;;;;1.73;100.00;91765.50;2089586;28;20467;-87